sensor_id;sensor_type;location;lat;lon;timestamp;temperature;humidity
38436;DHT22;24220;48.168;14.024;2022-11-20T00:01:33;7.70;70.80
38436;DHT22;24220;48.168;14.024;2022-11-20T00:04:04;7.70;70.90
38436;DHT22;24220;48.168;14.024;2022-11-20T00:06:31;7.70;70.80
38436;DHT22;24220;48.168;14.024;2022-11-20T00:09:01;7.70;70.60
38436;DHT22;24220;48.168;14.024;2022-11-20T00:11:30;7.70;70.70
38436;DHT22;24220;48.168;14.024;2022-11-20T00:14:01;7.70;71.00
38436;DHT22;24220;48.168;14.024;2022-11-20T00:16:32;7.70;71.00
38436;DHT22;24220;48.168;14.024;2022-11-20T00:18:59;7.70;71.00
38436;DHT22;24220;48.168;14.024;2022-11-20T00:21:28;7.70;71.10
38436;DHT22;24220;48.168;14.024;2022-11-20T00:23:58;7.70;71.30
38436;DHT22;24220;48.168;14.024;2022-11-20T00:26:27;7.70;71.20
38436;DHT22;24220;48.168;14.024;2022-11-20T00:28:57;7.70;71.20
38436;DHT22;24220;48.168;14.024;2022-11-20T00:31:28;7.70;71.10
38436;DHT22;24220;48.168;14.024;2022-11-20T00:33:56;7.70;71.10
38436;DHT22;24220;48.168;14.024;2022-11-20T00:36:25;7.70;71.20
38436;DHT22;24220;48.168;14.024;2022-11-20T00:38:57;7.70;71.30
38436;DHT22;24220;48.168;14.024;2022-11-20T00:41:28;7.70;71.30
38436;DHT22;24220;48.168;14.024;2022-11-20T00:43:58;7.70;71.20
38436;DHT22;24220;48.168;14.024;2022-11-20T00:46:27;7.70;71.20
38436;DHT22;24220;48.168;14.024;2022-11-20T00:48:54;7.70;71.20
38436;DHT22;24220;48.168;14.024;2022-11-20T00:51:23;7.70;71.20
38436;DHT22;24220;48.168;14.024;2022-11-20T00:53:51;7.70;71.10
38436;DHT22;24220;48.168;14.024;2022-11-20T00:56:19;7.70;71.10
38436;DHT22;24220;48.168;14.024;2022-11-20T00:58:48;7.70;71.00
38436;DHT22;24220;48.168;14.024;2022-11-20T01:01:24;7.70;70.90
38436;DHT22;24220;48.168;14.024;2022-11-20T01:03:54;7.70;70.90
38436;DHT22;24220;48.168;14.024;2022-11-20T01:08:54;7.70;70.90
38436;DHT22;24220;48.168;14.024;2022-11-20T01:11:27;7.70;71.10
38436;DHT22;24220;48.168;14.024;2022-11-20T01:13:58;7.70;71.30
38436;DHT22;24220;48.168;14.024;2022-11-20T01:16:45;7.70;71.20
38436;DHT22;24220;48.168;14.024;2022-11-20T01:19:15;7.70;71.10
38436;DHT22;24220;48.168;14.024;2022-11-20T01:21:47;7.70;71.20
38436;DHT22;24220;48.168;14.024;2022-11-20T01:24:19;7.70;71.20
38436;DHT22;24220;48.168;14.024;2022-11-20T01:26:50;7.70;71.20
38436;DHT22;24220;48.168;14.024;2022-11-20T01:29:23;7.70;71.30
38436;DHT22;24220;48.168;14.024;2022-11-20T01:31:52;7.70;71.30
38436;DHT22;24220;48.168;14.024;2022-11-20T01:34:20;7.70;71.20
38436;DHT22;24220;48.168;14.024;2022-11-20T01:36:49;7.70;71.20
38436;DHT22;24220;48.168;14.024;2022-11-20T01:39:19;7.70;71.40
38436;DHT22;24220;48.168;14.024;2022-11-20T01:41:51;7.70;72.00
38436;DHT22;24220;48.168;14.024;2022-11-20T01:47:42;7.70;71.30
38436;DHT22;24220;48.168;14.024;2022-11-20T01:52:52;7.70;71.10
38436;DHT22;24220;48.168;14.024;2022-11-20T01:55:28;7.70;71.20
38436;DHT22;24220;48.168;14.024;2022-11-20T01:57:58;7.70;71.30
38436;DHT22;24220;48.168;14.024;2022-11-20T02:00:27;7.70;71.50
38436;DHT22;24220;48.168;14.024;2022-11-20T02:02:59;7.70;71.50
38436;DHT22;24220;48.168;14.024;2022-11-20T02:05:32;7.70;71.50
38436;DHT22;24220;48.168;14.024;2022-11-20T02:08:04;7.70;71.50
38436;DHT22;24220;48.168;14.024;2022-11-20T02:10:32;7.80;71.60
38436;DHT22;24220;48.168;14.024;2022-11-20T02:13:03;7.70;71.50
38436;DHT22;24220;48.168;14.024;2022-11-20T02:15:49;7.80;71.50
38436;DHT22;24220;48.168;14.024;2022-11-20T02:18:18;7.80;71.40
38436;DHT22;24220;48.168;14.024;2022-11-20T02:20:48;7.70;71.40
38436;DHT22;24220;48.168;14.024;2022-11-20T02:23:39;7.80;71.50
38436;DHT22;24220;48.168;14.024;2022-11-20T02:26:12;7.80;71.60
38436;DHT22;24220;48.168;14.024;2022-11-20T02:28:40;7.80;71.60
38436;DHT22;24220;48.168;14.024;2022-11-20T02:31:10;7.80;71.60
38436;DHT22;24220;48.168;14.024;2022-11-20T02:33:37;7.80;71.50
38436;DHT22;24220;48.168;14.024;2022-11-20T02:36:05;7.80;71.60
38436;DHT22;24220;48.168;14.024;2022-11-20T02:38:32;7.80;71.60
38436;DHT22;24220;48.168;14.024;2022-11-20T02:41:00;7.80;71.60
38436;DHT22;24220;48.168;14.024;2022-11-20T02:43:27;7.80;71.60
38436;DHT22;24220;48.168;14.024;2022-11-20T02:45:54;7.80;71.60
38436;DHT22;24220;48.168;14.024;2022-11-20T02:48:24;7.80;71.80
38436;DHT22;24220;48.168;14.024;2022-11-20T02:50:52;7.80;72.00
38436;DHT22;24220;48.168;14.024;2022-11-20T02:53:20;7.70;72.20
38436;DHT22;24220;48.168;14.024;2022-11-20T02:55:47;7.70;72.30
38436;DHT22;24220;48.168;14.024;2022-11-20T02:58:14;7.70;72.40
38436;DHT22;24220;48.168;14.024;2022-11-20T03:00:41;7.70;72.60
38436;DHT22;24220;48.168;14.024;2022-11-20T03:03:09;7.70;72.80
38436;DHT22;24220;48.168;14.024;2022-11-20T03:05:36;7.70;73.00
38436;DHT22;24220;48.168;14.024;2022-11-20T03:08:03;7.70;73.10
38436;DHT22;24220;48.168;14.024;2022-11-20T03:10:33;7.60;73.30
38436;DHT22;24220;48.168;14.024;2022-11-20T03:13:05;7.60;73.20
38436;DHT22;24220;48.168;14.024;2022-11-20T03:15:36;7.60;73.20
38436;DHT22;24220;48.168;14.024;2022-11-20T03:18:04;7.60;73.30
38436;DHT22;24220;48.168;14.024;2022-11-20T03:20:33;7.60;73.40
38436;DHT22;24220;48.168;14.024;2022-11-20T03:23:01;7.60;73.40
38436;DHT22;24220;48.168;14.024;2022-11-20T03:25:28;7.60;73.40
38436;DHT22;24220;48.168;14.024;2022-11-20T03:27:56;7.60;73.10
38436;DHT22;24220;48.168;14.024;2022-11-20T03:30:23;7.60;73.10
38436;DHT22;24220;48.168;14.024;2022-11-20T03:32:56;7.60;73.30
38436;DHT22;24220;48.168;14.024;2022-11-20T03:35:26;7.60;73.00
38436;DHT22;24220;48.168;14.024;2022-11-20T03:37:54;7.60;73.00
38436;DHT22;24220;48.168;14.024;2022-11-20T03:40:21;7.60;73.10
38436;DHT22;24220;48.168;14.024;2022-11-20T03:42:48;7.60;73.30
38436;DHT22;24220;48.168;14.024;2022-11-20T03:45:17;7.60;73.20
38436;DHT22;24220;48.168;14.024;2022-11-20T03:47:45;7.60;73.30
38436;DHT22;24220;48.168;14.024;2022-11-20T03:50:13;7.60;73.30
38436;DHT22;24220;48.168;14.024;2022-11-20T03:52:41;7.60;73.40
38436;DHT22;24220;48.168;14.024;2022-11-20T03:55:09;7.60;73.50
38436;DHT22;24220;48.168;14.024;2022-11-20T03:57:36;7.60;73.70
38436;DHT22;24220;48.168;14.024;2022-11-20T04:00:04;7.60;73.80
38436;DHT22;24220;48.168;14.024;2022-11-20T04:02:35;7.60;74.00
38436;DHT22;24220;48.168;14.024;2022-11-20T04:05:02;7.60;73.90
38436;DHT22;24220;48.168;14.024;2022-11-20T04:07:29;7.60;73.80
38436;DHT22;24220;48.168;14.024;2022-11-20T04:09:56;7.60;73.70
38436;DHT22;24220;48.168;14.024;2022-11-20T04:12:24;7.60;73.20
38436;DHT22;24220;48.168;14.024;2022-11-20T04:14:51;7.60;73.20
38436;DHT22;24220;48.168;14.024;2022-11-20T04:17:18;7.50;73.40
38436;DHT22;24220;48.168;14.024;2022-11-20T04:19:46;7.50;73.60
38436;DHT22;24220;48.168;14.024;2022-11-20T04:22:13;7.50;73.80
38436;DHT22;24220;48.168;14.024;2022-11-20T04:24:43;7.50;73.90
38436;DHT22;24220;48.168;14.024;2022-11-20T04:27:12;7.50;74.00
38436;DHT22;24220;48.168;14.024;2022-11-20T04:29:40;7.50;74.10
38436;DHT22;24220;48.168;14.024;2022-11-20T04:32:07;7.60;74.20
38436;DHT22;24220;48.168;14.024;2022-11-20T04:34:34;7.60;74.30
38436;DHT22;24220;48.168;14.024;2022-11-20T04:37:02;7.60;74.30
38436;DHT22;24220;48.168;14.024;2022-11-20T04:39:29;7.60;74.20
38436;DHT22;24220;48.168;14.024;2022-11-20T04:41:56;7.60;74.10
38436;DHT22;24220;48.168;14.024;2022-11-20T04:44:42;7.60;74.10
38436;DHT22;24220;48.168;14.024;2022-11-20T04:47:10;7.60;74.10
38436;DHT22;24220;48.168;14.024;2022-11-20T04:49:37;7.70;74.30
38436;DHT22;24220;48.168;14.024;2022-11-20T04:52:04;7.60;74.20
38436;DHT22;24220;48.168;14.024;2022-11-20T04:54:32;7.70;74.20
38436;DHT22;24220;48.168;14.024;2022-11-20T04:56:59;7.60;74.10
38436;DHT22;24220;48.168;14.024;2022-11-20T04:59:26;7.60;74.00
38436;DHT22;24220;48.168;14.024;2022-11-20T05:01:54;7.60;73.90
38436;DHT22;24220;48.168;14.024;2022-11-20T05:04:21;7.60;74.60
38436;DHT22;24220;48.168;14.024;2022-11-20T05:06:49;7.70;74.10
38436;DHT22;24220;48.168;14.024;2022-11-20T05:09:17;7.70;74.10
38436;DHT22;24220;48.168;14.024;2022-11-20T05:11:46;7.70;74.10
38436;DHT22;24220;48.168;14.024;2022-11-20T05:14:17;7.70;73.90
38436;DHT22;24220;48.168;14.024;2022-11-20T05:16:44;7.70;73.90
38436;DHT22;24220;48.168;14.024;2022-11-20T05:19:12;7.70;73.90
38436;DHT22;24220;48.168;14.024;2022-11-20T05:21:42;7.70;73.90
38436;DHT22;24220;48.168;14.024;2022-11-20T05:24:11;7.70;73.90
38436;DHT22;24220;48.168;14.024;2022-11-20T05:26:41;7.70;73.80
38436;DHT22;24220;48.168;14.024;2022-11-20T05:29:12;7.70;73.80
38436;DHT22;24220;48.168;14.024;2022-11-20T05:31:41;7.70;73.70
38436;DHT22;24220;48.168;14.024;2022-11-20T05:34:09;7.70;73.70
38436;DHT22;24220;48.168;14.024;2022-11-20T05:36:36;7.70;73.70
38436;DHT22;24220;48.168;14.024;2022-11-20T05:39:05;7.70;73.70
38436;DHT22;24220;48.168;14.024;2022-11-20T05:41:35;7.70;73.60
38436;DHT22;24220;48.168;14.024;2022-11-20T05:44:02;7.70;73.60
38436;DHT22;24220;48.168;14.024;2022-11-20T05:46:32;7.70;73.60
38436;DHT22;24220;48.168;14.024;2022-11-20T05:49:02;7.70;73.60
38436;DHT22;24220;48.168;14.024;2022-11-20T05:51:32;7.70;73.60
38436;DHT22;24220;48.168;14.024;2022-11-20T05:53:59;7.70;73.50
38436;DHT22;24220;48.168;14.024;2022-11-20T05:56:26;7.70;73.40
38436;DHT22;24220;48.168;14.024;2022-11-20T05:58:56;7.70;73.50
38436;DHT22;24220;48.168;14.024;2022-11-20T06:01:25;7.70;73.60
38436;DHT22;24220;48.168;14.024;2022-11-20T06:03:53;7.70;73.70
38436;DHT22;24220;48.168;14.024;2022-11-20T06:06:20;7.70;73.70
38436;DHT22;24220;48.168;14.024;2022-11-20T06:08:50;7.70;73.70
38436;DHT22;24220;48.168;14.024;2022-11-20T06:11:18;7.70;73.60
38436;DHT22;24220;48.168;14.024;2022-11-20T06:13:46;7.70;73.50
38436;DHT22;24220;48.168;14.024;2022-11-20T06:16:16;7.70;73.60
38436;DHT22;24220;48.168;14.024;2022-11-20T06:18:46;7.70;73.90
38436;DHT22;24220;48.168;14.024;2022-11-20T06:21:17;7.70;74.10
38436;DHT22;24220;48.168;14.024;2022-11-20T06:23:44;7.70;73.80
38436;DHT22;24220;48.168;14.024;2022-11-20T06:26:18;7.70;74.00
38436;DHT22;24220;48.168;14.024;2022-11-20T06:28:49;7.60;74.30
38436;DHT22;24220;48.168;14.024;2022-11-20T06:31:21;7.70;74.40
38436;DHT22;24220;48.168;14.024;2022-11-20T06:33:49;7.60;74.40
38436;DHT22;24220;48.168;14.024;2022-11-20T06:36:20;7.70;74.60
38436;DHT22;24220;48.168;14.024;2022-11-20T06:38:48;7.70;74.60
38436;DHT22;24220;48.168;14.024;2022-11-20T06:41:17;7.70;74.60
38436;DHT22;24220;48.168;14.024;2022-11-20T06:43:45;7.70;74.50
38436;DHT22;24220;48.168;14.024;2022-11-20T06:46:14;7.70;74.40
38436;DHT22;24220;48.168;14.024;2022-11-20T06:48:41;7.70;74.60
38436;DHT22;24220;48.168;14.024;2022-11-20T06:51:09;7.70;74.30
38436;DHT22;24220;48.168;14.024;2022-11-20T06:53:37;7.70;74.30
38436;DHT22;24220;48.168;14.024;2022-11-20T06:56:05;7.70;74.50
38436;DHT22;24220;48.168;14.024;2022-11-20T06:58:36;7.70;74.60
38436;DHT22;24220;48.168;14.024;2022-11-20T07:01:12;7.70;74.60
38436;DHT22;24220;48.168;14.024;2022-11-20T07:03:40;7.70;74.60
38436;DHT22;24220;48.168;14.024;2022-11-20T07:06:08;7.70;74.50
38436;DHT22;24220;48.168;14.024;2022-11-20T07:08:35;7.70;74.50
38436;DHT22;24220;48.168;14.024;2022-11-20T07:11:05;7.80;74.60
38436;DHT22;24220;48.168;14.024;2022-11-20T07:13:34;7.80;74.70
38436;DHT22;24220;48.168;14.024;2022-11-20T07:16:04;7.80;74.60
38436;DHT22;24220;48.168;14.024;2022-11-20T07:18:35;7.80;74.60
38436;DHT22;24220;48.168;14.024;2022-11-20T07:21:07;7.80;74.70
38436;DHT22;24220;48.168;14.024;2022-11-20T07:23:34;7.80;74.60
38436;DHT22;24220;48.168;14.024;2022-11-20T07:26:06;7.80;74.60
38436;DHT22;24220;48.168;14.024;2022-11-20T07:28:34;7.80;74.70
38436;DHT22;24220;48.168;14.024;2022-11-20T07:31:02;7.80;74.70
38436;DHT22;24220;48.168;14.024;2022-11-20T07:33:29;7.80;74.70
38436;DHT22;24220;48.168;14.024;2022-11-20T07:36:00;7.90;74.70
38436;DHT22;24220;48.168;14.024;2022-11-20T07:38:30;7.90;74.50
38436;DHT22;24220;48.168;14.024;2022-11-20T07:40:57;7.90;74.60
38436;DHT22;24220;48.168;14.024;2022-11-20T07:43:29;7.90;74.50
38436;DHT22;24220;48.168;14.024;2022-11-20T07:45:58;7.90;74.50
38436;DHT22;24220;48.168;14.024;2022-11-20T07:48:26;7.90;74.50
38436;DHT22;24220;48.168;14.024;2022-11-20T07:50:57;7.90;74.50
38436;DHT22;24220;48.168;14.024;2022-11-20T07:53:26;7.90;74.40
38436;DHT22;24220;48.168;14.024;2022-11-20T07:55:54;7.90;74.50
38436;DHT22;24220;48.168;14.024;2022-11-20T07:58:21;7.90;74.50
38436;DHT22;24220;48.168;14.024;2022-11-20T08:00:49;7.90;74.60
38436;DHT22;24220;48.168;14.024;2022-11-20T08:03:19;8.00;74.70
38436;DHT22;24220;48.168;14.024;2022-11-20T08:05:51;8.00;74.60
38436;DHT22;24220;48.168;14.024;2022-11-20T08:08:18;8.00;74.50
38436;DHT22;24220;48.168;14.024;2022-11-20T08:10:48;8.00;74.40
38436;DHT22;24220;48.168;14.024;2022-11-20T08:13:15;8.00;74.50
38436;DHT22;24220;48.168;14.024;2022-11-20T08:16:03;8.00;74.40
38436;DHT22;24220;48.168;14.024;2022-11-20T08:18:33;8.00;74.40
38436;DHT22;24220;48.168;14.024;2022-11-20T08:21:04;8.00;74.40
38436;DHT22;24220;48.168;14.024;2022-11-20T08:23:31;8.00;74.30
38436;DHT22;24220;48.168;14.024;2022-11-20T08:25:59;8.10;74.40
38436;DHT22;24220;48.168;14.024;2022-11-20T08:28:26;8.00;74.40
38436;DHT22;24220;48.168;14.024;2022-11-20T08:31:01;8.10;75.00
38436;DHT22;24220;48.168;14.024;2022-11-20T08:33:29;8.10;75.00
38436;DHT22;24220;48.168;14.024;2022-11-20T08:36:04;8.10;74.50
38436;DHT22;24220;48.168;14.024;2022-11-20T08:38:32;8.10;74.40
38436;DHT22;24220;48.168;14.024;2022-11-20T08:41:01;8.10;74.40
38436;DHT22;24220;48.168;14.024;2022-11-20T08:43:47;8.10;74.40
38436;DHT22;24220;48.168;14.024;2022-11-20T08:46:14;8.10;74.50
38436;DHT22;24220;48.168;14.024;2022-11-20T08:48:42;8.20;74.40
38436;DHT22;24220;48.168;14.024;2022-11-20T08:51:10;8.10;74.40
38436;DHT22;24220;48.168;14.024;2022-11-20T08:53:38;8.20;74.50
38436;DHT22;24220;48.168;14.024;2022-11-20T08:56:07;8.20;74.50
38436;DHT22;24220;48.168;14.024;2022-11-20T08:58:37;8.20;74.40
38436;DHT22;24220;48.168;14.024;2022-11-20T09:01:24;8.20;74.50
38436;DHT22;24220;48.168;14.024;2022-11-20T09:03:52;8.30;74.50
38436;DHT22;24220;48.168;14.024;2022-11-20T09:06:19;8.30;74.50
38436;DHT22;24220;48.168;14.024;2022-11-20T09:08:46;8.30;74.70
38436;DHT22;24220;48.168;14.024;2022-11-20T09:11:13;8.30;74.80
38436;DHT22;24220;48.168;14.024;2022-11-20T09:13:41;8.30;74.80
38436;DHT22;24220;48.168;14.024;2022-11-20T09:16:09;8.40;74.80
38436;DHT22;24220;48.168;14.024;2022-11-20T09:18:36;8.40;74.90
38436;DHT22;24220;48.168;14.024;2022-11-20T09:21:10;8.40;74.80
38436;DHT22;24220;48.168;14.024;2022-11-20T09:23:38;8.50;74.70
38436;DHT22;24220;48.168;14.024;2022-11-20T09:26:11;8.50;74.80
38436;DHT22;24220;48.168;14.024;2022-11-20T09:28:38;8.60;75.20
38436;DHT22;24220;48.168;14.024;2022-11-20T09:31:14;8.60;75.50
38436;DHT22;24220;48.168;14.024;2022-11-20T09:33:44;8.70;75.70
38436;DHT22;24220;48.168;14.024;2022-11-20T09:36:12;8.80;75.80
38436;DHT22;24220;48.168;14.024;2022-11-20T09:38:39;8.90;75.60
38436;DHT22;24220;48.168;14.024;2022-11-20T09:41:14;9.00;75.40
38436;DHT22;24220;48.168;14.024;2022-11-20T09:46:42;9.10;74.50
38436;DHT22;24220;48.168;14.024;2022-11-20T09:52:22;9.20;74.60
38436;DHT22;24220;48.168;14.024;2022-11-20T09:54:58;9.30;74.90
38436;DHT22;24220;48.168;14.024;2022-11-20T09:57:40;9.30;75.00
38436;DHT22;24220;48.168;14.024;2022-11-20T10:00:12;9.40;75.00
38436;DHT22;24220;48.168;14.024;2022-11-20T10:05:25;9.60;75.10
38436;DHT22;24220;48.168;14.024;2022-11-20T10:08:21;9.70;75.00
38436;DHT22;24220;48.168;14.024;2022-11-20T10:10:54;9.80;75.10
38436;DHT22;24220;48.168;14.024;2022-11-20T10:21:50;10.10;74.90
38436;DHT22;24220;48.168;14.024;2022-11-20T10:30:18;10.30;75.00
38436;DHT22;24220;48.168;14.024;2022-11-20T10:32:50;10.40;75.20
38436;DHT22;24220;48.168;14.024;2022-11-20T10:35:23;10.50;75.10
38436;DHT22;24220;48.168;14.024;2022-11-20T10:37:58;10.60;75.10
38436;DHT22;24220;48.168;14.024;2022-11-20T10:40:38;10.70;74.90
38436;DHT22;24220;48.168;14.024;2022-11-20T10:43:21;10.80;74.90
38436;DHT22;24220;48.168;14.024;2022-11-20T10:46:08;10.80;74.80
38436;DHT22;24220;48.168;14.024;2022-11-20T10:48:38;10.90;74.50
38436;DHT22;24220;48.168;14.024;2022-11-20T10:56:53;11.00;74.20
38436;DHT22;24220;48.168;14.024;2022-11-20T11:02:23;11.10;73.20
38436;DHT22;24220;48.168;14.024;2022-11-20T11:04:54;11.10;72.70
38436;DHT22;24220;48.168;14.024;2022-11-20T11:07:38;11.10;72.60
38436;DHT22;24220;48.168;14.024;2022-11-20T11:10:18;11.10;71.90
38436;DHT22;24220;48.168;14.024;2022-11-20T11:12:47;11.10;71.80
38436;DHT22;24220;48.168;14.024;2022-11-20T11:15:26;11.10;71.80
38436;DHT22;24220;48.168;14.024;2022-11-20T11:17:54;11.00;71.70
38436;DHT22;24220;48.168;14.024;2022-11-20T11:20:25;11.00;71.60
38436;DHT22;24220;48.168;14.024;2022-11-20T11:22:58;11.00;71.40
38436;DHT22;24220;48.168;14.024;2022-11-20T11:25:30;11.00;71.40
38436;DHT22;24220;48.168;14.024;2022-11-20T11:28:26;11.00;70.60
38436;DHT22;24220;48.168;14.024;2022-11-20T11:30:55;10.90;71.20
38436;DHT22;24220;48.168;14.024;2022-11-20T11:33:25;10.90;70.50
38436;DHT22;24220;48.168;14.024;2022-11-20T11:35:59;10.90;70.40
38436;DHT22;24220;48.168;14.024;2022-11-20T11:38:34;10.90;70.40
38436;DHT22;24220;48.168;14.024;2022-11-20T11:41:03;10.90;70.60
38436;DHT22;24220;48.168;14.024;2022-11-20T11:43:36;10.90;70.50
38436;DHT22;24220;48.168;14.024;2022-11-20T11:46:33;10.90;70.50
38436;DHT22;24220;48.168;14.024;2022-11-20T11:51:51;10.90;70.00
38436;DHT22;24220;48.168;14.024;2022-11-20T11:54:55;10.90;70.40
38436;DHT22;24220;48.168;14.024;2022-11-20T11:57:51;10.90;70.00
38436;DHT22;24220;48.168;14.024;2022-11-20T12:00:20;10.90;70.00
38436;DHT22;24220;48.168;14.024;2022-11-20T12:03:12;10.90;69.60
38436;DHT22;24220;48.168;14.024;2022-11-20T12:05:59;10.90;69.60
38436;DHT22;24220;48.168;14.024;2022-11-20T12:11:18;10.90;69.80
38436;DHT22;24220;48.168;14.024;2022-11-20T12:13:48;10.90;69.90
38436;DHT22;24220;48.168;14.024;2022-11-20T12:16:19;10.90;70.10
38436;DHT22;24220;48.168;14.024;2022-11-20T12:18:51;10.90;69.90
38436;DHT22;24220;48.168;14.024;2022-11-20T12:21:20;10.90;69.90
38436;DHT22;24220;48.168;14.024;2022-11-20T12:26:44;10.90;69.70
38436;DHT22;24220;48.168;14.024;2022-11-20T12:37:27;10.90;69.70
38436;DHT22;24220;48.168;14.024;2022-11-20T12:40:07;10.90;69.80
38436;DHT22;24220;48.168;14.024;2022-11-20T12:45:55;10.90;70.10
38436;DHT22;24220;48.168;14.024;2022-11-20T12:48:29;11.00;69.80
38436;DHT22;24220;48.168;14.024;2022-11-20T12:51:11;10.90;69.90
38436;DHT22;24220;48.168;14.024;2022-11-20T12:56:43;11.00;70.20
38436;DHT22;24220;48.168;14.024;2022-11-20T13:02:33;11.00;69.70
38436;DHT22;24220;48.168;14.024;2022-11-20T13:05:24;11.00;69.80
38436;DHT22;24220;48.168;14.024;2022-11-20T13:08:00;11.00;69.90
38436;DHT22;24220;48.168;14.024;2022-11-20T13:10:43;11.00;70.30
38436;DHT22;24220;48.168;14.024;2022-11-20T13:16:02;11.00;69.30
38436;DHT22;24220;48.168;14.024;2022-11-20T13:18:39;11.00;68.90
38436;DHT22;24220;48.168;14.024;2022-11-20T13:21:34;11.00;69.00
38436;DHT22;24220;48.168;14.024;2022-11-20T13:24:28;11.00;69.10
38436;DHT22;24220;48.168;14.024;2022-11-20T13:27:21;11.00;68.20
38436;DHT22;24220;48.168;14.024;2022-11-20T13:30:22;11.00;68.60
38436;DHT22;24220;48.168;14.024;2022-11-20T13:33:06;11.00;68.30
38436;DHT22;24220;48.168;14.024;2022-11-20T13:35:41;11.00;68.30
38436;DHT22;24220;48.168;14.024;2022-11-20T13:38:13;11.10;68.20
38436;DHT22;24220;48.168;14.024;2022-11-20T13:46:02;11.10;68.40
38436;DHT22;24220;48.168;14.024;2022-11-20T13:48:44;11.10;68.50
38436;DHT22;24220;48.168;14.024;2022-11-20T14:00:14;11.10;67.90
38436;DHT22;24220;48.168;14.024;2022-11-20T14:05:38;11.10;68.60
38436;DHT22;24220;48.168;14.024;2022-11-20T14:08:14;11.10;68.80
38436;DHT22;24220;48.168;14.024;2022-11-20T14:10:43;11.10;68.80
38436;DHT22;24220;48.168;14.024;2022-11-20T14:13:19;11.10;68.90
38436;DHT22;24220;48.168;14.024;2022-11-20T14:15:46;11.10;68.60
38436;DHT22;24220;48.168;14.024;2022-11-20T14:18:19;11.10;68.70
38436;DHT22;24220;48.168;14.024;2022-11-20T14:20:47;11.10;68.60
38436;DHT22;24220;48.168;14.024;2022-11-20T14:23:27;11.10;68.90
38436;DHT22;24220;48.168;14.024;2022-11-20T14:25:57;11.10;68.90
38436;DHT22;24220;48.168;14.024;2022-11-20T14:28:28;11.10;69.20
38436;DHT22;24220;48.168;14.024;2022-11-20T14:30:59;11.10;69.30
38436;DHT22;24220;48.168;14.024;2022-11-20T14:33:27;11.10;69.50
38436;DHT22;24220;48.168;14.024;2022-11-20T14:35:58;11.10;69.40
38436;DHT22;24220;48.168;14.024;2022-11-20T14:38:29;11.10;69.30
38436;DHT22;24220;48.168;14.024;2022-11-20T14:41:18;11.10;69.50
38436;DHT22;24220;48.168;14.024;2022-11-20T14:43:52;11.00;69.50
38436;DHT22;24220;48.168;14.024;2022-11-20T14:46:20;11.10;69.80
38436;DHT22;24220;48.168;14.024;2022-11-20T14:48:54;11.10;69.90
38436;DHT22;24220;48.168;14.024;2022-11-20T14:51:36;11.10;69.80
38436;DHT22;24220;48.168;14.024;2022-11-20T14:54:16;11.00;69.70
38436;DHT22;24220;48.168;14.024;2022-11-20T14:57:00;11.10;69.60
38436;DHT22;24220;48.168;14.024;2022-11-20T14:59:33;11.00;69.80
38436;DHT22;24220;48.168;14.024;2022-11-20T15:02:07;11.00;69.80
38436;DHT22;24220;48.168;14.024;2022-11-20T15:05:04;11.10;69.90
38436;DHT22;24220;48.168;14.024;2022-11-20T15:07:34;11.00;69.70
38436;DHT22;24220;48.168;14.024;2022-11-20T15:10:11;11.00;70.00
38436;DHT22;24220;48.168;14.024;2022-11-20T15:12:51;11.00;69.80
38436;DHT22;24220;48.168;14.024;2022-11-20T15:18:05;11.00;69.50
38436;DHT22;24220;48.168;14.024;2022-11-20T15:20:33;11.00;69.80
38436;DHT22;24220;48.168;14.024;2022-11-20T15:23:12;11.00;69.80
38436;DHT22;24220;48.168;14.024;2022-11-20T15:25:43;11.00;69.60
38436;DHT22;24220;48.168;14.024;2022-11-20T15:31:22;11.00;69.10
38436;DHT22;24220;48.168;14.024;2022-11-20T15:33:49;11.00;69.10
38436;DHT22;24220;48.168;14.024;2022-11-20T15:36:20;11.00;68.80
38436;DHT22;24220;48.168;14.024;2022-11-20T15:38:48;11.00;68.70
38436;DHT22;24220;48.168;14.024;2022-11-20T15:41:15;11.00;68.70
38436;DHT22;24220;48.168;14.024;2022-11-20T15:43:43;11.00;68.70
38436;DHT22;24220;48.168;14.024;2022-11-20T15:46:13;11.00;68.60
38436;DHT22;24220;48.168;14.024;2022-11-20T15:48:43;11.00;68.70
38436;DHT22;24220;48.168;14.024;2022-11-20T15:53:50;10.90;68.70
38436;DHT22;24220;48.168;14.024;2022-11-20T15:56:18;10.90;69.10
38436;DHT22;24220;48.168;14.024;2022-11-20T15:58:45;10.90;69.10
38436;DHT22;24220;48.168;14.024;2022-11-20T16:01:16;10.90;69.10
38436;DHT22;24220;48.168;14.024;2022-11-20T16:03:46;10.90;69.20
38436;DHT22;24220;48.168;14.024;2022-11-20T16:06:14;10.90;69.40
38436;DHT22;24220;48.168;14.024;2022-11-20T16:08:43;10.90;69.10
38436;DHT22;24220;48.168;14.024;2022-11-20T16:11:12;10.90;69.00
38436;DHT22;24220;48.168;14.024;2022-11-20T16:13:42;10.90;69.20
38436;DHT22;24220;48.168;14.024;2022-11-20T16:16:35;10.90;69.30
38436;DHT22;24220;48.168;14.024;2022-11-20T16:19:03;10.90;69.40
38436;DHT22;24220;48.168;14.024;2022-11-20T16:21:31;10.90;69.30
38436;DHT22;24220;48.168;14.024;2022-11-20T16:24:04;10.90;69.20
38436;DHT22;24220;48.168;14.024;2022-11-20T16:26:32;10.90;69.20
38436;DHT22;24220;48.168;14.024;2022-11-20T16:29:01;10.90;69.40
38436;DHT22;24220;48.168;14.024;2022-11-20T16:31:29;10.90;69.50
38436;DHT22;24220;48.168;14.024;2022-11-20T16:34:02;10.90;69.60
38436;DHT22;24220;48.168;14.024;2022-11-20T16:36:39;10.90;69.50
38436;DHT22;24220;48.168;14.024;2022-11-20T16:39:13;10.90;69.40
38436;DHT22;24220;48.168;14.024;2022-11-20T16:41:46;10.90;69.20
38436;DHT22;24220;48.168;14.024;2022-11-20T16:44:13;10.90;69.10
38436;DHT22;24220;48.168;14.024;2022-11-20T16:46:41;10.90;69.00
38436;DHT22;24220;48.168;14.024;2022-11-20T16:49:12;10.90;69.00
38436;DHT22;24220;48.168;14.024;2022-11-20T16:51:40;10.90;68.80
38436;DHT22;24220;48.168;14.024;2022-11-20T16:54:09;10.90;69.00
38436;DHT22;24220;48.168;14.024;2022-11-20T16:56:47;10.90;68.90
38436;DHT22;24220;48.168;14.024;2022-11-20T16:59:14;10.90;69.00
38436;DHT22;24220;48.168;14.024;2022-11-20T17:01:41;10.90;68.90
38436;DHT22;24220;48.168;14.024;2022-11-20T17:04:10;10.90;68.50
38436;DHT22;24220;48.168;14.024;2022-11-20T17:06:40;10.90;68.40
38436;DHT22;24220;48.168;14.024;2022-11-20T17:09:12;10.90;68.30
38436;DHT22;24220;48.168;14.024;2022-11-20T17:11:40;10.90;68.30
38436;DHT22;24220;48.168;14.024;2022-11-20T17:14:10;10.90;68.10
38436;DHT22;24220;48.168;14.024;2022-11-20T17:16:40;10.90;68.40
38436;DHT22;24220;48.168;14.024;2022-11-20T17:19:08;10.90;68.40
38436;DHT22;24220;48.168;14.024;2022-11-20T17:21:35;10.80;68.20
38436;DHT22;24220;48.168;14.024;2022-11-20T17:24:05;10.90;68.10
38436;DHT22;24220;48.168;14.024;2022-11-20T17:26:36;10.80;68.20